Time;durP1;ratioP1;P1;durP2;ratioP2;P2;SDS_P1;SDS_P2;PMS_P1;PMS_P2;Temp;Humidity;BMP_temperature;BMP_pressure;BME280_temperature;BME280_humidity;BME280_pressure;Samples;Min_cycle;Max_cycle;Signal;HPM_P1;HPM_P2
2021/05/27 00:00:24;;;;;;;5.70;2.53;;;11.50;90.60;;;;;;5034861;28;20402;-81
2021/05/27 00:02:50;;;;;;;4.25;2.60;;;11.50;90.60;;;;;;5035010;28;20068;-82
2021/05/27 00:05:16;;;;;;;3.88;2.60;;;11.50;90.70;;;;;;5034883;28;20049;-81
2021/05/27 00:07:43;;;;;;;5.35;2.63;;;11.40;90.70;;;;;;5034879;28;20025;-82
2021/05/27 00:10:10;;;;;;;4.15;3.03;;;11.40;90.70;;;;;;5017116;28;20079;-81
2021/05/27 00:12:36;;;;;;;5.75;2.75;;;11.30;90.80;;;;;;5034680;28;20018;-83
2021/05/27 00:15:05;;;;;;;3.20;2.03;;;11.30;90.80;;;;;;5034623;28;20060;-83
2021/05/27 00:17:30;;;;;;;2.15;1.88;;;11.30;90.80;;;;;;5034550;28;20021;-84
2021/05/27 00:19:56;;;;;;;6.20;2.75;;;11.20;90.80;;;;;;5034805;28;20076;-84
2021/05/27 00:22:21;;;;;;;3.85;2.60;;;11.20;90.80;;;;;;5034978;28;20025;-81
2021/05/27 00:24:47;;;;;;;3.85;2.20;;;11.20;90.90;;;;;;5034670;28;20104;-84
2021/05/27 00:27:14;;;;;;;4.28;2.47;;;11.10;90.90;;;;;;5034445;28;20477;-88
2021/05/27 00:29:40;;;;;;;3.88;2.00;;;11.10;90.90;;;;;;5034335;28;20036;-84
2021/05/27 00:32:06;;;;;;;3.72;2.17;;;11.00;90.90;;;;;;5034796;28;20025;-82
2021/05/27 00:34:31;;;;;;;3.95;2.10;;;11.00;91.00;;;;;;5016777;28;20034;-84
2021/05/27 00:36:57;;;;;;;6.18;2.90;;;11.00;91.00;;;;;;5034385;28;20044;-84
2021/05/27 00:39:23;;;;;;;2.33;1.80;;;10.90;91.00;;;;;;5034473;28;20520;-83
2021/05/27 00:41:48;;;;;;;2.53;2.00;;;10.90;91.10;;;;;;5034389;28;20155;-82
2021/05/27 00:44:24;;;;;;;2.97;1.65;;;10.90;91.10;;;;;;5033839;28;20491;-83
2021/05/27 00:46:50;;;;;;;2.03;1.77;;;11.00;91.00;;;;;;5034053;28;20047;-82
2021/05/27 00:49:16;;;;;;;1.80;1.60;;;10.90;91.00;;;;;;5033984;28;20501;-82
2021/05/27 00:51:46;;;;;;;2.97;1.85;;;10.90;90.90;;;;;;5034053;28;20030;-84
2021/05/27 00:54:13;;;;;;;2.75;2.00;;;10.90;91.30;;;;;;5034280;28;20025;-84
2021/05/27 00:56:40;;;;;;;3.50;2.40;;;10.90;91.00;;;;;;5033909;28;20064;-80
2021/05/27 00:59:06;;;;;;;3.65;2.25;;;10.80;91.00;;;;;;5033601;28;20049;-84
2021/05/27 01:01:32;;;;;;;2.83;2.08;;;10.80;91.10;;;;;;5033987;28;20355;-82
2021/05/27 01:03:58;;;;;;;2.08;1.67;;;10.80;91.10;;;;;;5016198;28;20470;-82
2021/05/27 01:06:24;;;;;;;3.35;1.70;;;10.70;91.10;;;;;;5033701;28;20037;-84
2021/05/27 01:08:49;;;;;;;2.80;1.70;;;10.70;91.20;;;;;;5033797;28;20063;-83
2021/05/27 01:11:16;;;;;;;4.72;2.60;;;10.60;91.20;;;;;;5033676;28;20025;-79
2021/05/27 01:13:42;;;;;;;1.88;1.50;;;10.60;91.20;;;;;;5033258;28;20079;-80
2021/05/27 01:16:16;;;;;;;3.92;1.60;;;10.50;91.30;;;;;;5033681;28;20432;-81
2021/05/27 01:18:44;;;;;;;2.60;1.67;;;10.50;91.30;;;;;;5015651;28;20473;-79
2021/05/27 01:21:11;;;;;;;3.37;2.00;;;10.50;91.30;;;;;;5033598;28;20040;-82
2021/05/27 01:23:37;;;;;;;2.13;1.70;;;10.50;91.30;;;;;;5033504;28;20017;-83
2021/05/27 01:26:04;;;;;;;3.95;1.50;;;10.40;91.40;;;;;;5033217;28;20133;-82
2021/05/27 01:28:33;;;;;;;3.78;2.50;;;10.40;91.40;;;;;;5033068;28;20033;-81
2021/05/27 01:31:01;;;;;;;3.38;2.28;;;10.30;91.40;;;;;;5032735;28;20024;-81
2021/05/27 01:33:27;;;;;;;2.13;1.83;;;10.30;91.40;;;;;;5033162;28;20017;-82
2021/05/27 01:35:54;;;;;;;2.08;1.70;;;10.30;91.50;;;;;;5033302;28;20473;-81
2021/05/27 01:38:22;;;;;;;1.77;1.30;;;10.30;91.40;;;;;;5033347;28;20072;-81
2021/05/27 01:40:49;;;;;;;2.20;1.45;;;10.30;91.40;;;;;;5033229;28;20025;-82
2021/05/27 01:43:15;;;;;;;2.65;1.70;;;10.20;91.40;;;;;;5032732;28;20032;-80
2021/05/27 01:45:43;;;;;;;2.70;1.52;;;10.20;91.40;;;;;;5033141;28;20473;-82
2021/05/27 01:48:09;;;;;;;1.77;1.45;;;10.20;91.50;;;;;;5015383;28;20025;-82
2021/05/27 01:50:35;;;;;;;2.38;1.88;;;10.10;91.50;;;;;;5033151;28;20036;-82
2021/05/27 01:53:03;;;;;;;3.05;1.52;;;10.10;91.50;;;;;;5033145;28;20592;-83
2021/05/27 01:55:30;;;;;;;4.57;1.50;;;10.20;91.40;;;;;;5033217;28;20030;-84
2021/05/27 01:57:56;;;;;;;2.17;1.40;;;10.20;91.40;;;;;;5032619;28;20022;-84
2021/05/27 02:00:23;;;;;;;1.75;1.45;;;10.10;91.40;;;;;;5033252;28;20049;-83
2021/05/27 02:02:49;;;;;;;1.65;1.10;;;10.20;91.40;;;;;;5033215;28;20512;-83
2021/05/27 02:05:14;;;;;;;1.55;1.10;;;10.10;91.40;;;;;;5033129;28;20168;-83
2021/05/27 02:07:41;;;;;;;1.05;0.90;;;10.10;91.40;;;;;;5033068;28;20025;-82
2021/05/27 02:10:08;;;;;;;1.65;1.42;;;10.10;91.40;;;;;;5032978;28;20037;-82
2021/05/27 02:12:34;;;;;;;1.48;1.25;;;10.20;91.40;;;;;;5015121;28;20390;-84
2021/05/27 02:14:59;;;;;;;1.52;1.25;;;10.20;91.40;;;;;;5032967;28;20474;-81
2021/05/27 02:17:25;;;;;;;2.55;1.60;;;10.10;91.40;;;;;;5033068;28;20037;-82
2021/05/27 02:19:51;;;;;;;1.30;1.20;;;10.10;91.40;;;;;;5033090;28;20104;-84
2021/05/27 02:22:16;;;;;;;1.85;1.33;;;10.10;91.70;;;;;;5033153;28;20119;-81
2021/05/27 02:24:42;;;;;;;1.27;1.10;;;10.10;91.50;;;;;;5033280;28;20073;-85
2021/05/27 02:27:07;;;;;;;1.63;1.30;;;10.10;91.50;;;;;;5032556;28;20128;-84
2021/05/27 02:29:33;;;;;;;1.58;1.42;;;10.10;91.50;;;;;;5033021;28;20018;-84
2021/05/27 02:31:59;;;;;;;1.92;1.33;;;10.20;91.50;;;;;;5033062;28;20072;-83
2021/05/27 02:34:24;;;;;;;2.30;1.50;;;10.20;91.40;;;;;;5033317;28;20030;-87
2021/05/27 02:36:50;;;;;;;1.45;1.35;;;10.10;91.40;;;;;;5033331;28;20032;-85
2021/05/27 02:39:16;;;;;;;2.45;1.08;;;10.10;91.50;;;;;;5015417;28;20104;-85
2021/05/27 02:41:41;;;;;;;0.88;0.88;;;10.10;91.50;;;;;;5034952;28;20022;-83
2021/05/27 02:44:07;;;;;;;0.98;0.85;;;10.10;91.50;;;;;;5036452;28;20440;-85
2021/05/27 02:46:33;;;;;;;1.13;1.08;;;10.10;91.50;;;;;;5037016;28;20041;-86
2021/05/27 02:48:59;;;;;;;1.08;0.75;;;10.10;91.50;;;;;;5037092;28;20022;-88
2021/05/27 02:51:24;;;;;;;1.45;1.10;;;10.10;91.50;;;;;;5019693;28;20390;-87
2021/05/27 02:53:50;;;;;;;1.23;1.13;;;10.10;91.60;;;;;;5019150;28;20021;-87
2021/05/27 02:56:15;;;;;;;1.50;1.40;;;10.10;91.50;;;;;;5037089;28;20363;-85
2021/05/27 02:58:41;;;;;;;1.27;1.17;;;10.10;91.50;;;;;;5037152;28;20033;-87
2021/05/27 03:01:07;;;;;;;1.58;1.15;;;10.00;91.60;;;;;;5036893;28;20026;-84
2021/05/27 03:03:32;;;;;;;1.20;1.10;;;10.00;91.60;;;;;;5036896;28;20032;-84
2021/05/27 03:05:58;;;;;;;1.98;1.20;;;10.00;91.60;;;;;;5036899;28;20121;-85
2021/05/27 03:08:24;;;;;;;4.05;2.72;;;10.00;91.60;;;;;;5036649;28;20536;-86
2021/05/27 03:10:51;;;;;;;1.30;1.20;;;10.00;91.60;;;;;;5036945;28;20413;-88
2021/05/27 03:13:16;;;;;;;2.47;1.55;;;10.00;91.60;;;;;;5036629;28;20028;-87
2021/05/27 03:15:42;;;;;;;1.73;1.27;;;10.10;91.60;;;;;;5019250;28;20025;-85
2021/05/27 03:18:08;;;;;;;4.30;2.08;;;10.00;91.60;;;;;;5019053;28;20033;-86
2021/05/27 03:20:35;;;;;;;1.63;1.33;;;10.00;91.70;;;;;;5036563;28;20437;-87
2021/05/27 03:23:01;;;;;;;1.38;0.80;;;10.10;91.70;;;;;;5036471;28;20021;-88
2021/05/27 03:25:27;;;;;;;1.00;0.90;;;10.00;91.70;;;;;;5018994;28;20087;-88
2021/05/27 03:27:53;;;;;;;1.98;1.02;;;10.00;91.70;;;;;;5018990;28;20558;-89
2021/05/27 03:30:19;;;;;;;1.88;1.33;;;10.00;91.70;;;;;;5036560;28;20036;-89
2021/05/27 03:32:45;;;;;;;1.38;1.00;;;10.00;91.70;;;;;;5036520;28;20029;-88
2021/05/27 03:35:12;;;;;;;1.13;1.02;;;10.00;91.70;;;;;;5036520;28;20022;-89
2021/05/27 03:37:38;;;;;;;2.33;1.50;;;10.10;91.70;;;;;;5035555;28;20025;-86
2021/05/27 03:40:14;;;;;;;2.10;1.60;;;10.00;91.70;;;;;;5035576;28;20539;-84
2021/05/27 03:42:42;;;;;;;2.15;1.10;;;10.00;91.80;;;;;;5035852;28;20033;-83
2021/05/27 03:45:10;;;;;;;1.92;1.30;;;10.00;91.90;;;;;;5035870;28;20079;-86
2021/05/27 03:47:37;;;;;;;1.30;1.17;;;10.00;91.80;;;;;;5018310;28;20112;-88
2021/05/27 03:50:05;;;;;;;1.60;1.00;;;10.00;91.80;;;;;;5036162;28;20022;-86
2021/05/27 03:52:32;;;;;;;1.52;1.42;;;10.00;91.80;;;;;;5034719;28;20022;-87
2021/05/27 03:54:57;;;;;;;2.50;1.10;;;10.00;91.70;;;;;;5035772;28;20032;-87
2021/05/27 03:57:23;;;;;;;1.38;1.27;;;10.00;91.80;;;;;;5035743;28;20370;-87
2021/05/27 04:02:33;;;;;;;1.20;1.10;;;10.00;91.80;;;;;;5035879;28;20064;-88
2021/05/27 04:07:43;;;;;;;1.30;1.20;;;10.00;91.80;;;;;;5034873;28;20041;-81
2021/05/27 04:10:09;;;;;;;1.15;0.88;;;10.00;91.90;;;;;;5035548;28;20025;-85
2021/05/27 04:12:46;;;;;;;1.08;0.80;;;10.00;91.80;;;;;;5035817;28;20014;-87
2021/05/27 04:15:21;;;;;;;1.73;1.23;;;10.00;91.90;;;;;;5035273;28;20018;-85
2021/05/27 04:17:48;;;;;;;0.90;0.85;;;10.00;91.90;;;;;;5035980;28;20478;-89
2021/05/27 04:20:14;;;;;;;1.55;1.20;;;9.90;91.90;;;;;;5035294;28;20500;-85
2021/05/27 04:22:43;;;;;;;4.32;1.45;;;9.90;92.00;;;;;;5035327;28;20478;-88
2021/05/27 04:25:13;;;;;;;1.10;1.00;;;9.90;92.00;;;;;;5035187;28;20112;-86
2021/05/27 04:27:40;;;;;;;1.48;1.17;;;10.00;91.90;;;;;;5035715;28;20041;-87
2021/05/27 04:30:13;;;;;;;0.70;0.70;;;10.00;91.90;;;;;;5035446;28;20024;-89
2021/05/27 04:33:11;;;;;;;1.35;1.17;;;10.00;91.90;;;;;;5035279;28;20037;-92
2021/05/27 04:35:38;;;;;;;1.20;0.85;;;10.10;91.80;;;;;;5017542;28;20501;-87
2021/05/27 04:38:13;;;;;;;1.38;1.20;;;10.00;91.90;;;;;;5035037;28;20091;-87
2021/05/27 04:40:41;;;;;;;1.08;0.95;;;10.00;91.90;;;;;;5035091;28;20033;-88
2021/05/27 04:43:07;;;;;;;1.67;1.42;;;10.00;91.90;;;;;;5035086;28;20021;-86
2021/05/27 04:45:33;;;;;;;0.95;0.80;;;10.00;91.90;;;;;;5035139;28;20079;-86
2021/05/27 04:47:59;;;;;;;0.95;0.85;;;10.00;91.90;;;;;;5034945;28;20021;-88
2021/05/27 04:50:25;;;;;;;1.00;0.77;;;10.00;91.90;;;;;;5017092;28;20095;-89
2021/05/27 04:52:51;;;;;;;1.08;0.85;;;10.00;91.90;;;;;;5034956;28;20017;-88
2021/05/27 04:55:19;;;;;;;0.80;0.75;;;10.00;91.90;;;;;;5035330;28;20025;-88
2021/05/27 04:57:45;;;;;;;1.40;0.80;;;10.00;92.00;;;;;;5034870;28;20531;-88
2021/05/27 05:00:18;;;;;;;0.80;0.80;;;10.00;91.90;;;;;;5035279;28;20029;-89
2021/05/27 05:02:43;;;;;;;1.17;0.90;;;10.10;91.90;;;;;;5035142;28;20033;-89
2021/05/27 05:05:11;;;;;;;0.70;0.70;;;10.10;91.90;;;;;;5034608;28;20044;-88
2021/05/27 05:07:41;;;;;;;0.75;0.75;;;10.10;91.90;;;;;;5035164;28;20140;-87
2021/05/27 05:10:09;;;;;;;0.57;0.57;;;10.10;91.90;;;;;;5034723;28;20022;-88
2021/05/27 05:12:46;;;;;;;0.35;0.35;;;10.10;91.90;;;;;;5034835;28;20143;-87
2021/05/27 05:15:13;;;;;;;0.60;0.50;;;10.20;91.90;;;;;;5034657;28;20079;-88
2021/05/27 05:17:38;;;;;;;0.73;0.73;;;10.20;91.90;;;;;;5034481;28;20068;-87
2021/05/27 05:20:04;;;;;;;0.70;0.70;;;10.20;91.90;;;;;;5034132;28;20025;-87
2021/05/27 05:22:30;;;;;;;0.80;0.70;;;10.20;91.90;;;;;;5034643;28;20021;-87
2021/05/27 05:24:56;;;;;;;0.68;0.68;;;10.20;91.90;;;;;;5034023;28;20465;-88
2021/05/27 05:27:22;;;;;;;1.83;1.48;;;10.20;91.90;;;;;;5016738;28;20049;-91
2021/05/27 05:29:48;;;;;;;0.77;0.63;;;10.20;91.90;;;;;;5034485;28;20029;-88
2021/05/27 05:32:13;;;;;;;2.08;1.60;;;10.20;91.90;;;;;;5034466;28;20060;-89
2021/05/27 05:34:39;;;;;;;0.93;0.80;;;10.20;92.00;;;;;;5033958;28;20025;-90
2021/05/27 05:37:05;;;;;;;0.57;0.50;;;10.20;92.00;;;;;;5034251;28;20029;-88
2021/05/27 05:39:31;;;;;;;0.45;0.45;;;10.20;91.90;;;;;;5034291;28;20029;-90
2021/05/27 05:41:56;;;;;;;1.17;1.08;;;10.30;91.90;;;;;;5034611;28;20026;-87
2021/05/27 05:44:22;;;;;;;1.17;1.08;;;10.30;91.80;;;;;;5016480;28;20025;-89
2021/05/27 05:46:48;;;;;;;0.60;0.60;;;10.20;91.90;;;;;;5034470;28;20025;-89
2021/05/27 05:49:13;;;;;;;1.13;0.68;;;10.20;92.00;;;;;;5033989;28;20067;-89
2021/05/27 05:51:39;;;;;;;0.60;0.60;;;10.20;91.90;;;;;;5034009;28;20466;-86
2021/05/27 05:54:04;;;;;;;1.02;0.80;;;10.20;92.00;;;;;;5033919;28;20029;-89
2021/05/27 05:56:30;;;;;;;1.00;0.90;;;10.20;92.00;;;;;;5033529;28;20026;-84
2021/05/27 05:58:55;;;;;;;0.60;0.55;;;10.20;91.90;;;;;;5033082;28;20029;-77
2021/05/27 06:01:21;;;;;;;1.08;0.98;;;10.30;92.00;;;;;;5033167;28;20044;-78
2021/05/27 06:03:46;;;;;;;1.30;1.08;;;10.20;91.90;;;;;;5025280;28;20034;-78
2021/05/27 06:06:12;;;;;;;1.05;0.88;;;10.20;92.00;;;;;;5051585;28;20033;-76
2021/05/27 06:08:37;;;;;;;0.70;0.65;;;10.20;92.10;;;;;;5052704;28;20033;-77
2021/05/27 06:11:03;;;;;;;0.60;0.60;;;10.20;92.00;;;;;;5052702;28;20514;-77
2021/05/27 06:13:29;;;;;;;2.15;1.42;;;10.20;92.00;;;;;;5042221;28;20021;-78
2021/05/27 06:15:54;;;;;;;1.52;0.80;;;10.20;92.00;;;;;;5042962;28;20037;-77
2021/05/27 06:18:20;;;;;;;0.50;0.43;;;10.30;92.00;;;;;;5045037;28;20385;-77
2021/05/27 06:20:45;;;;;;;1.33;0.98;;;10.30;92.00;;;;;;5036515;28;20469;-77
2021/05/27 06:23:11;;;;;;;1.95;0.68;;;10.20;92.00;;;;;;5027227;28;20028;-78
2021/05/27 06:25:39;;;;;;;1.63;1.35;;;10.20;92.00;;;;;;5038879;28;20060;-78
2021/05/27 06:28:04;;;;;;;0.88;0.80;;;10.20;92.00;;;;;;5056179;28;20493;-78
2021/05/27 06:30:30;;;;;;;1.58;1.08;;;10.20;92.10;;;;;;5037926;28;20026;-78
2021/05/27 06:32:56;;;;;;;1.30;1.00;;;10.30;92.10;;;;;;5036041;28;20017;-78
2021/05/27 06:35:21;;;;;;;1.10;1.02;;;10.30;92.00;;;;;;5036405;28;20025;-79
2021/05/27 06:37:47;;;;;;;1.25;1.15;;;10.20;92.10;;;;;;5036399;28;20067;-79
2021/05/27 06:40:22;;;;;;;4.68;2.15;;;10.30;92.10;;;;;;5036629;28;20021;-79
2021/05/27 06:42:48;;;;;;;0.98;0.80;;;10.30;92.10;;;;;;5036001;28;20048;-77
2021/05/27 06:45:15;;;;;;;0.75;0.68;;;10.20;92.10;;;;;;5036216;28;20478;-80
2021/05/27 06:47:40;;;;;;;1.17;0.95;;;10.30;92.10;;;;;;5035788;28;20462;-77
2021/05/27 06:50:07;;;;;;;0.70;0.70;;;10.30;92.10;;;;;;5018438;28;20036;-79
2021/05/27 06:52:32;;;;;;;0.60;0.60;;;10.30;92.10;;;;;;5023187;28;20614;-80
2021/05/27 06:54:58;;;;;;;0.70;0.70;;;10.40;92.00;;;;;;5036245;28;20537;-80
2021/05/27 06:57:24;;;;;;;1.02;0.80;;;10.40;92.00;;;;;;5036071;28;20112;-80
2021/05/27 06:59:49;;;;;;;0.50;0.50;;;10.40;91.90;;;;;;5052031;28;20497;-79
2021/05/27 07:02:17;;;;;;;0.77;0.60;;;10.50;92.00;;;;;;5037648;28;20017;-79
2021/05/27 07:04:43;;;;;;;0.77;0.60;;;10.50;92.00;;;;;;5055831;28;20071;-79
2021/05/27 07:07:09;;;;;;;0.50;0.50;;;10.40;92.00;;;;;;5056007;28;20025;-79
2021/05/27 07:09:35;;;;;;;0.88;0.80;;;10.40;92.00;;;;;;5054102;28;20099;-78
2021/05/27 07:12:00;;;;;;;0.65;0.60;;;10.40;92.10;;;;;;5055734;28;20024;-78
2021/05/27 07:14:26;;;;;;;0.50;0.50;;;10.40;92.10;;;;;;5055706;28;20028;-78
2021/05/27 07:16:51;;;;;;;0.93;0.60;;;10.50;92.10;;;;;;5055444;28;20096;-78
2021/05/27 07:19:17;;;;;;;0.75;0.70;;;10.50;92.10;;;;;;5054068;28;20064;-78
2021/05/27 07:21:44;;;;;;;0.55;0.55;;;10.50;92.10;;;;;;5037782;28;20013;-78
2021/05/27 07:24:09;;;;;;;0.40;0.40;;;10.50;92.10;;;;;;5037646;28;20171;-77
2021/05/27 07:26:35;;;;;;;1.08;0.40;;;10.50;92.10;;;;;;5054065;28;20513;-77
2021/05/27 07:29:01;;;;;;;0.77;0.70;;;10.50;92.10;;;;;;5054328;28;20524;-77
2021/05/27 07:31:26;;;;;;;1.83;0.77;;;10.50;92.10;;;;;;5049648;28;20017;-78
2021/05/27 07:33:52;;;;;;;0.60;0.60;;;10.50;92.10;;;;;;5017667;28;20079;-76
2021/05/27 07:36:18;;;;;;;0.63;0.63;;;10.50;92.20;;;;;;5017763;28;20026;-77
2021/05/27 07:38:43;;;;;;;1.92;1.15;;;10.50;92.20;;;;;;5040374;28;20048;-79
2021/05/27 07:41:09;;;;;;;4.25;1.17;;;10.50;92.10;;;;;;5054905;28;20033;-77
2021/05/27 07:43:35;;;;;;;1.13;1.02;;;10.50;92.10;;;;;;5055139;28;20071;-77
2021/05/27 07:46:01;;;;;;;1.95;1.10;;;10.40;92.20;;;;;;5053797;28;20056;-78
2021/05/27 07:48:26;;;;;;;2.25;1.48;;;10.40;92.30;;;;;;5044079;28;20061;-79
2021/05/27 07:50:52;;;;;;;1.50;0.70;;;10.40;92.20;;;;;;5035046;28;20381;-78
2021/05/27 07:53:20;;;;;;;0.88;0.80;;;10.40;92.20;;;;;;5035139;28;20022;-79
2021/05/27 07:55:49;;;;;;;1.85;0.80;;;10.50;92.20;;;;;;5040082;28;20021;-77
2021/05/27 07:58:14;;;;;;;0.50;0.50;;;10.50;92.20;;;;;;5054644;28;20547;-78
2021/05/27 08:00:41;;;;;;;0.77;0.60;;;10.50;92.10;;;;;;5054054;28;20032;-79
2021/05/27 08:03:06;;;;;;;0.50;0.50;;;10.50;92.10;;;;;;5036858;28;20017;-78
2021/05/27 08:05:32;;;;;;;0.47;0.47;;;10.50;92.10;;;;;;5054828;28;20079;-78
2021/05/27 08:07:57;;;;;;;0.70;0.50;;;10.50;92.10;;;;;;5054804;28;20021;-77
2021/05/27 08:10:23;;;;;;;0.57;0.47;;;10.70;92.10;;;;;;5052804;28;20041;-77
2021/05/27 08:12:49;;;;;;;0.60;0.60;;;10.70;92.10;;;;;;5054407;28;20017;-78
2021/05/27 08:15:15;;;;;;;0.85;0.55;;;10.60;92.00;;;;;;5036557;28;20021;-77
2021/05/27 08:17:40;;;;;;;0.93;0.80;;;10.60;92.20;;;;;;5054552;28;20100;-78
2021/05/27 08:20:08;;;;;;;0.98;0.60;;;10.50;92.20;;;;;;5054578;28;20381;-77
2021/05/27 08:22:34;;;;;;;0.73;0.60;;;10.50;92.30;;;;;;5054401;28;20346;-78
2021/05/27 08:24:59;;;;;;;1.13;0.80;;;10.50;92.30;;;;;;5054120;28;20076;-77
2021/05/27 08:27:25;;;;;;;2.03;1.50;;;10.60;92.20;;;;;;5053315;28;20084;-76
2021/05/27 08:29:50;;;;;;;2.72;1.30;;;10.60;92.20;;;;;;5052650;28;20488;-81
2021/05/27 08:32:16;;;;;;;1.33;1.23;;;10.60;92.20;;;;;;5034678;28;20412;-80
2021/05/27 08:34:41;;;;;;;1.85;1.00;;;10.60;92.30;;;;;;5054256;28;20025;-80
2021/05/27 08:37:07;;;;;;;1.48;0.77;;;10.60;92.30;;;;;;5036449;28;20021;-79
2021/05/27 08:39:33;;;;;;;1.30;0.85;;;10.70;92.20;;;;;;5052063;28;20026;-80
2021/05/27 08:42:00;;;;;;;0.73;0.70;;;10.70;92.30;;;;;;5053713;28;20086;-79
2021/05/27 08:44:26;;;;;;;1.98;1.35;;;10.70;92.20;;;;;;5054128;28;20021;-79
2021/05/27 08:46:51;;;;;;;2.40;1.63;;;10.70;92.20;;;;;;5053910;28;20063;-78
2021/05/27 08:49:18;;;;;;;1.42;0.90;;;10.70;92.40;;;;;;5044819;28;20111;-79
2021/05/27 08:51:43;;;;;;;2.00;1.10;;;10.80;92.30;;;;;;5035182;28;20025;-79
2021/05/27 08:54:09;;;;;;;1.15;1.02;;;10.90;92.30;;;;;;5033900;28;20370;-79
2021/05/27 08:56:35;;;;;;;0.98;0.70;;;11.00;92.10;;;;;;5015500;28;20025;-77
2021/05/27 08:59:01;;;;;;;0.73;0.70;;;11.00;92.20;;;;;;5034041;28;20053;-77
2021/05/27 09:01:26;;;;;;;1.20;0.90;;;11.00;92.20;;;;;;5038565;28;20057;-78
2021/05/27 09:03:55;;;;;;;1.40;1.30;;;11.00;92.30;;;;;;5041923;28;20025;-78
2021/05/27 09:06:21;;;;;;;1.10;0.87;;;11.00;92.20;;;;;;5045696;28;20060;-78
2021/05/27 09:08:47;;;;;;;3.40;1.35;;;11.00;92.30;;;;;;5053517;28;20267;-78
2021/05/27 09:11:16;;;;;;;1.48;0.98;;;11.00;92.30;;;;;;5053245;28;20031;-78
2021/05/27 09:14:01;;;;;;;1.50;1.40;;;11.10;92.30;;;;;;5039065;28;20108;-79
2021/05/27 09:16:27;;;;;;;2.35;1.40;;;11.10;92.30;;;;;;5015996;28;20474;-77
2021/05/27 09:18:53;;;;;;;1.48;1.10;;;11.00;92.40;;;;;;5033612;28;20386;-77
2021/05/27 09:21:37;;;;;;;2.30;1.30;;;10.90;92.40;;;;;;5033390;28;20025;-76
2021/05/27 09:24:02;;;;;;;1.38;1.13;;;10.80;92.50;;;;;;5045890;28;20025;-80
2021/05/27 09:26:28;;;;;;;1.35;1.05;;;10.80;92.60;;;;;;5038306;28;20044;-79
2021/05/27 09:29:12;;;;;;;2.92;0.90;;;10.80;92.50;;;;;;5048328;28;20049;-78
2021/05/27 09:32:02;;;;;;;1.13;0.98;;;10.90;92.40;;;;;;5051661;28;20029;-76
2021/05/27 09:34:45;;;;;;;2.00;1.02;;;11.00;92.30;;;;;;5017590;28;20033;-75
2021/05/27 09:37:30;;;;;;;1.38;0.90;;;11.10;92.30;;;;;;5033566;28;20033;-76
2021/05/27 09:39:58;;;;;;;1.38;1.02;;;11.00;92.30;;;;;;5043103;28;20021;-76
2021/05/27 09:42:24;;;;;;;1.92;1.38;;;11.00;92.30;;;;;;5051374;28;20096;-76
2021/05/27 09:44:50;;;;;;;3.85;1.88;;;11.00;92.30;;;;;;5046794;28;20370;-76
2021/05/27 09:47:36;;;;;;;2.55;1.60;;;10.90;92.40;;;;;;5033241;28;20030;-76
2021/05/27 09:50:06;;;;;;;1.52;1.10;;;10.90;92.40;;;;;;5032537;28;20061;-77
2021/05/27 09:52:43;;;;;;;1.35;1.17;;;10.90;92.50;;;;;;5033874;28;20025;-75
2021/05/27 09:55:11;;;;;;;2.72;1.95;;;10.90;92.40;;;;;;5032800;28;20057;-76
2021/05/27 09:57:40;;;;;;;1.73;1.20;;;11.00;92.30;;;;;;5034122;28;20075;-76
2021/05/27 10:00:23;;;;;;;1.38;1.20;;;11.10;92.30;;;;;;5033122;28;20031;-75
2021/05/27 10:02:50;;;;;;;1.02;0.90;;;11.20;92.30;;;;;;5033084;28;20022;-77
2021/05/27 10:05:16;;;;;;;0.90;0.88;;;11.30;92.20;;;;;;5032962;28;20389;-77
2021/05/27 10:07:46;;;;;;;1.98;1.38;;;11.40;92.10;;;;;;5029425;28;20381;-79
2021/05/27 10:10:25;;;;;;;1.48;1.20;;;11.40;92.10;;;;;;5032529;28;20062;-78
2021/05/27 10:12:53;;;;;;;1.60;1.20;;;11.30;92.10;;;;;;5034212;28;20029;-76
2021/05/27 10:15:22;;;;;;;2.30;1.25;;;11.30;92.20;;;;;;5032766;28;20096;-76
2021/05/27 10:17:47;;;;;;;1.35;1.23;;;11.20;92.30;;;;;;5038201;28;20021;-78
2021/05/27 10:20:16;;;;;;;1.52;1.42;;;11.10;92.30;;;;;;5051146;28;20150;-76
2021/05/27 10:22:45;;;;;;;1.30;0.95;;;11.10;92.40;;;;;;5049349;28;20032;-76
2021/05/27 10:25:13;;;;;;;0.87;0.77;;;11.20;92.40;;;;;;5033722;28;20105;-77
2021/05/27 10:27:42;;;;;;;1.75;1.20;;;11.30;92.30;;;;;;5041654;28;20045;-77
2021/05/27 10:30:08;;;;;;;2.00;0.88;;;11.40;92.20;;;;;;5052849;28;20013;-75
2021/05/27 10:32:40;;;;;;;1.20;1.10;;;11.40;92.20;;;;;;5034814;28;20028;-76
2021/05/27 10:35:07;;;;;;;3.40;1.98;;;11.40;92.20;;;;;;5047922;28;20029;-76
2021/05/27 10:37:38;;;;;;;1.50;1.10;;;11.40;92.20;;;;;;5031491;28;20481;-75
2021/05/27 10:40:29;;;;;;;1.58;1.25;;;11.40;92.20;;;;;;5050510;28;20432;-74
2021/05/27 10:42:59;;;;;;;1.75;0.90;;;11.40;92.00;;;;;;5038661;28;20036;-75
2021/05/27 10:45:29;;;;;;;0.80;0.77;;;11.40;92.20;;;;;;5033408;28;20040;-75
2021/05/27 10:48:15;;;;;;;1.42;0.98;;;11.50;92.20;;;;;;5036924;28;20021;-76
2021/05/27 10:53:38;;;;;;;2.08;1.20;;;11.40;92.40;;;;;;5052245;28;20481;-76
2021/05/27 10:56:11;;;;;;;1.60;1.20;;;11.40;92.30;;;;;;5043407;28;20030;-75
2021/05/27 10:58:45;;;;;;;3.47;1.73;;;11.30;92.30;;;;;;5032511;28;20072;-76
2021/05/27 11:01:12;;;;;;;1.38;1.00;;;11.30;92.30;;;;;;5033654;28;20057;-76
2021/05/27 11:03:48;;;;;;;2.67;1.65;;;11.20;92.50;;;;;;5036740;28;20018;-76
2021/05/27 11:06:30;;;;;;;1.30;1.15;;;11.30;92.50;;;;;;5042641;28;20394;-77
2021/05/27 11:11:37;;;;;;;1.27;1.02;;;11.30;92.30;;;;;;5039822;28;20029;-74
2021/05/27 11:14:22;;;;;;;0.88;0.80;;;11.30;92.30;;;;;;5055750;28;20021;-75
2021/05/27 11:17:03;;;;;;;1.13;0.90;;;11.40;92.40;;;;;;5053058;28;20100;-76
2021/05/27 11:22:27;;;;;;;1.40;1.00;;;11.30;92.30;;;;;;5043859;28;20060;-76
2021/05/27 11:27:37;;;;;;;1.52;1.02;;;11.40;92.40;;;;;;5055629;28;20132;-75
2021/05/27 11:30:19;;;;;;;1.10;1.10;;;11.40;92.40;;;;;;5053739;28;20021;-76
2021/05/27 11:32:50;;;;;;;2.17;1.60;;;11.50;92.40;;;;;;5055213;28;20091;-73
2021/05/27 11:35:17;;;;;;;0.77;0.77;;;11.50;92.40;;;;;;5037583;28;20479;-75
2021/05/27 11:37:44;;;;;;;1.40;1.15;;;11.40;92.40;;;;;;5054646;28;20424;-76
2021/05/27 11:40:12;;;;;;;1.15;1.05;;;11.50;92.40;;;;;;5037386;28;20031;-76
2021/05/27 11:42:38;;;;;;;1.95;1.10;;;11.50;92.40;;;;;;5055177;28;20104;-76
2021/05/27 11:45:07;;;;;;;0.90;0.90;;;11.50;92.50;;;;;;5053563;28;20503;-76
2021/05/27 11:47:32;;;;;;;1.13;1.00;;;11.60;92.50;;;;;;5050486;28;20047;-76
2021/05/27 11:50:08;;;;;;;1.10;0.85;;;11.70;92.40;;;;;;5045600;28;20025;-77
2021/05/27 11:52:35;;;;;;;0.68;0.60;;;11.90;92.30;;;;;;5052656;28;20065;-78
2021/05/27 11:55:00;;;;;;;0.77;0.77;;;12.10;92.10;;;;;;5054992;28;20051;-77
2021/05/27 11:57:48;;;;;;;1.00;0.80;;;12.20;92.10;;;;;;5055034;28;20021;-78
2021/05/27 12:00:19;;;;;;;0.63;0.60;;;12.30;92.10;;;;;;5054912;28;20037;-78
2021/05/27 12:02:46;;;;;;;0.75;0.75;;;12.30;92.10;;;;;;5049012;28;20029;-75
2021/05/27 12:05:29;;;;;;;1.50;1.10;;;12.40;92.10;;;;;;5054106;28;20055;-74
2021/05/27 12:08:03;;;;;;;1.58;1.20;;;12.40;92.00;;;;;;5034876;28;20121;-75
2021/05/27 12:10:35;;;;;;;0.43;0.43;;;12.30;92.10;;;;;;5034723;28;20386;-75
2021/05/27 12:13:01;;;;;;;0.80;0.80;;;12.30;92.20;;;;;;5034629;28;20112;-74
2021/05/27 12:15:28;;;;;;;1.40;0.98;;;12.30;92.20;;;;;;5034134;28;20017;-75
2021/05/27 12:17:57;;;;;;;1.02;0.90;;;12.30;92.10;;;;;;5034730;28;20021;-74
2021/05/27 12:20:35;;;;;;;1.00;0.93;;;12.20;92.10;;;;;;5034091;28;20013;-75
2021/05/27 12:23:06;;;;;;;1.08;0.82;;;12.20;92.20;;;;;;5034596;28;20041;-78
2021/05/27 12:25:43;;;;;;;2.10;1.10;;;12.20;92.30;;;;;;5034428;28;20112;-76
2021/05/27 12:28:30;;;;;;;0.80;0.80;;;12.30;92.20;;;;;;5016459;28;20073;-75
2021/05/27 12:30:57;;;;;;;1.48;0.82;;;12.30;92.20;;;;;;5034331;28;20029;-76
2021/05/27 12:33:26;;;;;;;0.50;0.50;;;12.30;92.20;;;;;;5034488;28;20068;-77
2021/05/27 12:35:52;;;;;;;1.17;0.80;;;12.40;92.20;;;;;;5033837;28;20025;-75
2021/05/27 12:38:20;;;;;;;1.33;0.93;;;12.50;92.10;;;;;;5034213;28;20036;-77
2021/05/27 12:41:06;;;;;;;0.95;0.80;;;12.70;92.10;;;;;;5034152;28;20153;-78
2021/05/27 12:43:37;;;;;;;0.70;0.70;;;12.90;92.00;;;;;;5034172;28;20381;-77
2021/05/27 12:46:04;;;;;;;0.70;0.70;;;13.00;91.90;;;;;;5034005;28;20040;-76
2021/05/27 12:48:32;;;;;;;0.60;0.60;;;13.10;91.80;;;;;;5033546;28;20021;-76
2021/05/27 12:51:01;;;;;;;1.00;0.90;;;13.10;91.80;;;;;;5034097;28;20377;-76
2021/05/27 12:53:31;;;;;;;;;;;13.10;91.70;;;;;;5034259;28;20041;-75
2021/05/27 12:56:11;;;;;;;0.95;0.80;;;12.90;91.70;;;;;;5033859;28;19951;-76
2021/05/27 12:58:39;;;;;;;0.80;0.80;;;12.70;92.00;;;;;;5033993;28;20029;-76
2021/05/27 13:01:06;;;;;;;0.60;0.60;;;12.60;92.10;;;;;;5033844;28;20029;-76
2021/05/27 13:03:43;;;;;;;2.35;0.85;;;12.60;92.10;;;;;;5033318;28;20026;-77
2021/05/27 13:06:10;;;;;;;0.55;0.55;;;12.70;92.10;;;;;;5033719;28;20034;-77
2021/05/27 13:08:38;;;;;;;1.30;0.80;;;12.70;92.00;;;;;;5033480;28;20022;-76